Time;durP1;ratioP1;P1;durP2;ratioP2;P2;SDS_P1;SDS_P2;PMS_P1;PMS_P2;Temp;Humidity;BMP_temperature;BMP_pressure;BME280_temperature;BME280_humidity;BME280_pressure;Samples;Min_cycle;Max_cycle;Signal;HPM_P1;HPM_P2
2021/04/23 00:01:14;;;;;;;19.25;13.13;;;;;;;8.29;73.60;97731.61;1746553;81;21102;-80
2021/04/23 00:03:57;;;;;;;22.05;13.30;;;;;;;8.24;73.90;97737.90;1757830;81;21117;-80
2021/04/23 00:06:48;;;;;;;19.60;12.28;;;;;;;8.25;73.44;97739.19;1770640;81;21134;-80
2021/04/23 00:09:37;;;;;;;18.45;12.55;;;;;;;8.23;73.94;97726.94;1764993;81;21660;-79
2021/04/23 00:12:12;;;;;;;21.30;12.60;;;;;;;8.19;73.72;97733.59;1740315;82;21110;-80
2021/04/23 00:14:45;;;;;;;19.82;12.40;;;;;;;8.14;73.65;97726.23;1739881;82;21162;-80
2021/04/23 00:17:12;;;;;;;18.67;12.33;;;;;;;8.11;73.34;97730.30;1740435;82;21145;-79
2021/04/23 00:19:47;;;;;;;22.67;13.38;;;;;;;8.05;73.72;97733.94;1759193;81;21110;-80
2021/04/23 00:22:15;;;;;;;22.62;14.43;;;;;;;8.02;73.71;97729.19;1760950;81;21529;-79
2021/04/23 00:24:43;;;;;;;23.90;13.95;;;;;;;8.00;73.56;97736.25;1761100;81;21552;-79
2021/04/23 00:27:11;;;;;;;21.15;14.10;;;;;;;7.96;73.51;97724.91;1754196;81;21151;-80
2021/04/23 00:29:39;;;;;;;20.97;13.60;;;;;;;7.95;74.18;97727.14;1765670;81;21126;-80
2021/04/23 00:34:54;;;;;;;22.13;13.78;;;;;;;7.90;75.05;97726.38;1740258;82;21135;-79
2021/04/23 00:37:21;;;;;;;20.15;14.10;;;;;;;7.88;74.36;97729.48;1741813;81;21115;-79
2021/04/23 00:39:49;;;;;;;21.48;13.88;;;;;;;7.87;73.78;97727.32;1740633;81;21123;-79
2021/04/23 00:42:16;;;;;;;23.05;14.05;;;;;;;7.86;73.90;97726.03;1740363;82;21261;-79
2021/04/23 00:44:44;;;;;;;18.77;13.22;;;;;;;7.83;74.41;97723.45;1750089;81;21619;-79
2021/04/23 00:47:11;;;;;;;20.15;12.95;;;;;;;7.81;74.22;97722.63;1770193;81;21114;-80
2021/04/23 00:49:39;;;;;;;19.62;13.50;;;;;;;7.78;74.44;97721.78;1764256;81;21493;-80
2021/04/23 00:52:08;;;;;;;19.55;14.25;;;;;;;7.76;74.33;97724.92;1764804;81;21095;-80
2021/04/23 00:54:36;;;;;;;20.00;14.00;;;;;;;7.75;74.41;97727.14;1766102;81;21159;-80
2021/04/23 00:57:04;;;;;;;21.82;13.30;;;;;;;7.74;75.97;97732.45;1762006;81;21126;-81
2021/04/23 00:59:32;;;;;;;22.37;15.18;;;;;;;7.72;76.46;97728.99;1761553;81;21183;-80
2021/04/23 01:02:07;;;;;;;18.82;13.25;;;;;;;7.72;74.89;97730.31;1745194;81;21311;-81
2021/04/23 01:04:34;;;;;;;19.10;12.70;;;;;;;7.70;75.81;97726.38;1715195;82;21150;-81
2021/04/23 01:07:05;;;;;;;20.60;12.20;;;;;;;7.69;75.53;97720.70;1752039;81;21133;-80
2021/04/23 01:09:35;;;;;;;20.72;11.70;;;;;;;7.70;75.71;97725.06;1740147;82;21145;-80
2021/04/23 01:12:05;;;;;;;17.98;11.97;;;;;;;7.70;75.44;97726.82;1740691;82;21145;-80
2021/04/23 01:14:36;;;;;;;21.65;12.05;;;;;;;7.69;75.05;97716.74;1740457;82;21162;-80
2021/04/23 01:17:05;;;;;;;16.77;10.23;;;;;;;7.68;75.30;97722.89;1749519;81;21112;-80
2021/04/23 01:19:33;;;;;;;16.48;10.28;;;;;;;7.69;74.72;97716.74;1762254;81;21652;-79
2021/04/23 01:22:01;;;;;;;16.02;11.45;;;;;;;7.70;75.40;97715.83;1770516;81;21135;-80
2021/04/23 01:24:28;;;;;;;19.30;12.55;;;;;;;7.71;75.54;97720.64;1736997;83;21154;-80
2021/04/23 01:26:59;;;;;;;19.15;11.55;;;;;;;7.70;76.48;97721.11;1729193;83;21567;-79
2021/04/23 01:29:27;;;;;;;17.37;11.48;;;;;;;7.66;77.09;97719.44;1731344;81;21449;-80
2021/04/23 01:31:59;;;;;;;16.85;11.05;;;;;;;7.64;77.25;97715.51;1716554;84;21146;-80
2021/04/23 01:34:32;;;;;;;16.97;10.25;;;;;;;7.64;75.94;97714.66;1740711;82;21175;-80
2021/04/23 01:37:01;;;;;;;15.45;9.23;;;;;;;7.63;77.12;97718.17;1740345;82;21143;-80
2021/04/23 01:39:32;;;;;;;13.88;9.03;;;;;;;7.60;77.42;97717.79;1737270;83;21584;-80
2021/04/23 01:42:00;;;;;;;15.40;8.70;;;;;;;7.58;78.19;97709.06;1723775;81;21469;-79
2021/04/23 01:44:29;;;;;;;13.25;8.65;;;;;;;7.60;77.35;97719.58;1739949;81;21509;-80
2021/04/23 01:46:59;;;;;;;13.50;8.60;;;;;;;7.61;76.87;97719.55;1736142;81;21095;-81
2021/04/23 01:49:27;;;;;;;12.78;8.43;;;;;;;7.64;76.56;97724.73;1737263;81;21268;-81
2021/04/23 01:52:03;;;;;;;13.95;7.70;;;;;;;7.70;76.70;97722.42;1737086;82;21150;-79
2021/04/23 01:54:31;;;;;;;11.93;8.38;;;;;;;7.76;76.79;97722.72;1736344;81;21293;-80
2021/04/23 01:56:59;;;;;;;12.43;8.38;;;;;;;7.82;76.67;97731.84;1758295;81;21644;-79
2021/04/23 01:59:28;;;;;;;13.95;8.45;;;;;;;7.87;76.66;97731.72;1734139;83;21155;-79
2021/04/23 02:01:59;;;;;;;11.57;8.40;;;;;;;7.93;76.64;97735.09;1736941;81;21172;-80
2021/04/23 02:04:28;;;;;;;13.15;8.65;;;;;;;7.96;76.78;97731.51;1734002;83;21096;-80
2021/04/23 02:06:59;;;;;;;10.85;8.03;;;;;;;8.00;76.64;97730.98;1737183;81;21104;-80
2021/04/23 02:09:27;;;;;;;15.05;7.95;;;;;;;8.00;76.80;97730.53;1741992;81;21100;-80
2021/04/23 02:11:56;;;;;;;12.63;7.95;;;;;;;8.01;76.79;97734.91;1758947;81;21153;-80
2021/04/23 02:14:27;;;;;;;13.40;9.43;;;;;;;8.02;76.55;97738.42;1764153;81;21122;-80
2021/04/23 02:16:55;;;;;;;14.10;9.13;;;;;;;7.95;76.53;97741.66;1758516;81;21131;-80
2021/04/23 02:19:24;;;;;;;17.48;9.88;;;;;;;7.87;77.87;97743.16;1754113;81;21256;-80
2021/04/23 02:21:52;;;;;;;15.83;9.68;;;;;;;7.86;77.28;97744.06;1764824;81;21182;-80
2021/04/23 02:24:21;;;;;;;15.70;9.95;;;;;;;7.85;76.41;97749.37;1765048;81;21509;-80
2021/04/23 02:26:49;;;;;;;17.98;11.00;;;;;;;7.83;76.29;97754.67;1762638;81;21485;-80
2021/04/23 02:29:19;;;;;;;14.33;11.05;;;;;;;7.83;76.39;97755.99;1754582;82;21142;-80
2021/04/23 02:31:54;;;;;;;18.37;11.28;;;;;;;7.83;76.08;97755.99;1737396;81;21146;-79
2021/04/23 02:34:25;;;;;;;14.70;11.00;;;;;;;7.81;75.91;97746.38;1750513;81;21119;-80
2021/04/23 02:36:54;;;;;;;20.20;12.40;;;;;;;7.78;76.20;97740.25;1741679;82;21129;-80
2021/04/23 02:39:22;;;;;;;21.07;12.93;;;;;;;7.78;76.67;97747.31;1723576;82;21110;-80
2021/04/23 02:41:53;;;;;;;24.00;13.55;;;;;;;7.75;76.00;97753.52;1729731;83;21152;-80
2021/04/23 02:44:22;;;;;;;23.42;14.33;;;;;;;7.74;75.97;97750.92;1729981;83;21274;-80
2021/04/23 02:46:50;;;;;;;19.92;14.23;;;;;;;7.66;76.21;97752.41;1729394;83;21140;-79
2021/04/23 02:49:19;;;;;;;28.15;15.95;;;;;;;7.59;76.14;97747.71;1735884;82;21516;-79
2021/04/23 02:51:49;;;;;;;26.52;15.75;;;;;;;7.58;76.38;97734.55;1716082;84;21643;-79
2021/04/23 02:54:20;;;;;;;27.65;17.07;;;;;;;7.57;76.06;97735.02;1729702;83;21161;-79
2021/04/23 02:56:48;;;;;;;28.83;15.83;;;;;;;7.55;76.35;97730.69;1721589;83;21130;-79
2021/04/23 02:59:16;;;;;;;27.20;17.90;;;;;;;7.49;76.33;97736.94;1720090;83;21268;-80
2021/04/23 03:01:51;;;;;;;28.55;16.30;;;;;;;7.44;76.65;97741.02;1744073;82;21132;-80
2021/04/23 03:04:19;;;;;;;27.58;16.45;;;;;;;7.43;76.33;97735.77;1752213;82;21135;-80
2021/04/23 03:06:46;;;;;;;25.27;16.37;;;;;;;7.40;76.66;97733.59;1747009;82;21151;-81
2021/04/23 03:09:15;;;;;;;25.00;15.38;;;;;;;7.40;76.49;97740.19;1739559;82;21115;-81
2021/04/23 03:11:43;;;;;;;22.35;14.20;;;;;;;7.40;76.40;97737.55;1740081;82;21309;-82
2021/04/23 03:14:11;;;;;;;19.62;13.98;;;;;;;7.41;76.51;97747.66;1739687;82;21142;-81
2021/04/23 03:16:42;;;;;;;23.65;15.03;;;;;;;7.41;76.61;97748.97;1739012;82;21115;-80
2021/04/23 03:19:16;;;;;;;22.75;14.58;;;;;;;7.39;77.46;97754.27;1734261;82;21119;-81
2021/04/23 03:21:53;;;;;;;22.42;13.70;;;;;;;7.37;76.88;97744.22;1725650;82;21493;-81
2021/04/23 03:24:22;;;;;;;19.82;12.90;;;;;;;7.35;76.96;97746.00;1725624;82;21190;-81
2021/04/23 03:26:54;;;;;;;19.82;12.98;;;;;;;7.35;77.01;97746.47;1739799;82;21126;-81
2021/04/23 03:29:26;;;;;;;20.27;14.40;;;;;;;7.32;76.94;97747.84;1697716;83;21131;-81
2021/04/23 03:31:56;;;;;;;23.67;13.60;;;;;;;7.32;76.89;97753.11;1711989;83;21632;-81
2021/04/23 03:34:26;;;;;;;23.07;13.83;;;;;;;7.34;77.10;97755.25;1723049;82;21509;-81
2021/04/23 03:36:56;;;;;;;20.88;14.10;;;;;;;7.34;77.03;97751.30;1702973;82;21516;-82
2021/04/23 03:39:39;;;;;;;19.57;12.85;;;;;;;7.34;77.63;97756.14;1751897;82;21194;-83
2021/04/23 03:42:09;;;;;;;18.35;13.00;;;;;;;7.36;77.03;97746.89;1751781;82;21153;-81
2021/04/23 03:44:43;;;;;;;19.10;12.68;;;;;;;7.36;77.06;97753.00;1722959;82;21147;-82
2021/04/23 03:47:13;;;;;;;22.15;12.47;;;;;;;7.39;78.20;97749.00;1725580;82;21139;-82
2021/04/23 03:49:47;;;;;;;19.67;13.28;;;;;;;7.43;77.10;97747.63;1663910;84;21544;-82
2021/04/23 03:52:15;;;;;;;18.02;12.45;;;;;;;7.45;77.07;97749.33;1694243;82;21516;-82
2021/04/23 03:54:49;;;;;;;16.52;11.63;;;;;;;7.51;77.83;97746.56;1722522;82;21111;-82
2021/04/23 03:57:21;;;;;;;21.90;12.65;;;;;;;7.56;77.77;97753.51;1726567;82;21242;-82
2021/04/23 03:59:52;;;;;;;20.50;12.70;;;;;;;7.61;77.71;97753.84;1658308;83;21515;-82
2021/04/23 04:02:25;;;;;;;19.62;13.20;;;;;;;7.66;78.08;97754.61;1716895;81;21508;-82
2021/04/23 04:04:56;;;;;;;;;;;;;;;7.78;77.86;97759.19;1687758;81;21150;-82
2021/04/23 04:07:27;;;;;;;23.92;13.65;;;;;;;7.85;77.64;97758.60;1705302;83;20325;-82
2021/04/23 04:09:58;;;;;;;18.90;12.35;;;;;;;7.92;77.79;97768.09;1733392;81;21119;-82
2021/04/23 04:12:30;;;;;;;18.98;12.98;;;;;;;7.97;77.62;97769.33;1716320;83;21492;-82
2021/04/23 04:14:59;;;;;;;25.85;14.13;;;;;;;7.99;77.45;97771.03;1665449;81;21119;-82
2021/04/23 04:17:30;;;;;;;23.47;14.98;;;;;;;8.03;77.50;97772.70;1746882;82;21540;-83
2021/04/23 04:20:01;;;;;;;22.60;15.25;;;;;;;8.08;77.09;97779.62;1720173;82;21181;-82
2021/04/23 04:22:29;;;;;;;26.87;15.03;;;;;;;8.09;76.87;97776.11;1736091;82;21145;-82
2021/04/23 04:24:58;;;;;;;18.77;13.00;;;;;;;8.08;76.42;97774.34;1717523;84;21138;-82
2021/04/23 04:27:29;;;;;;;19.90;12.15;;;;;;;8.06;76.24;97775.25;1691845;84;21500;-82
2021/04/23 04:29:57;;;;;;;18.45;11.57;;;;;;;8.04;76.69;97779.72;1689121;82;21122;-81
2021/04/23 04:32:25;;;;;;;16.73;11.50;;;;;;;8.05;76.13;97785.84;1706746;82;21098;-82
2021/04/23 04:34:55;;;;;;;17.17;11.53;;;;;;;8.03;76.43;97780.63;1729306;83;21162;-82
2021/04/23 04:37:26;;;;;;;19.42;12.40;;;;;;;8.01;76.79;97781.09;1732421;82;21497;-82
2021/04/23 04:39:53;;;;;;;19.67;13.55;;;;;;;8.01;76.57;97777.13;1720134;82;21162;-82
2021/04/23 04:42:25;;;;;;;30.40;15.85;;;;;;;8.00;76.25;97785.96;1735315;82;21125;-82
2021/04/23 04:45:01;;;;;;;37.45;18.48;;;;;;;7.99;76.35;97796.11;1684452;84;21147;-82
2021/04/23 04:47:37;;;;;;;29.85;15.03;;;;;;;7.98;76.05;97796.13;1686658;84;21495;-82
2021/04/23 04:50:11;;;;;;;22.98;14.75;;;;;;;7.96;76.44;97792.64;1715771;82;21138;-82
2021/04/23 04:52:40;;;;;;;23.67;14.80;;;;;;;7.95;75.91;97798.83;1725213;82;21137;-82
2021/04/23 04:55:09;;;;;;;21.35;14.25;;;;;;;7.96;76.10;97801.88;1734860;81;21123;-82
2021/04/23 04:57:42;;;;;;;18.87;13.13;;;;;;;7.95;75.87;97803.67;1720902;82;21149;-82
2021/04/23 05:00:15;;;;;;;18.30;12.68;;;;;;;7.96;76.09;97805.39;1697142;83;21184;-82
2021/04/23 05:02:43;;;;;;;18.82;12.93;;;;;;;7.98;76.54;97808.01;1704963;83;21103;-82
2021/04/23 05:05:15;;;;;;;19.02;12.47;;;;;;;7.97;75.92;97803.64;1697717;84;21181;-81
2021/04/23 05:07:45;;;;;;;22.55;13.35;;;;;;;7.99;75.87;97808.42;1657845;85;21174;-82
2021/04/23 05:10:18;;;;;;;20.40;12.25;;;;;;;7.99;75.74;97813.70;1660280;85;21145;-82
2021/04/23 05:12:48;;;;;;;15.72;11.22;;;;;;;8.02;76.02;97809.21;1658360;85;21142;-83
2021/04/23 05:15:20;;;;;;;19.55;13.28;;;;;;;8.06;75.77;97808.72;1664136;84;21142;-82
2021/04/23 05:17:49;;;;;;;27.37;19.45;;;;;;;8.11;75.61;97813.87;1686222;84;21159;-80
2021/04/23 05:20:21;;;;;;;29.82;19.60;;;;;;;8.15;75.67;97822.15;1721359;83;21132;-80
2021/04/23 05:22:50;;;;;;;21.23;14.83;;;;;;;8.17;75.83;97822.97;1727001;83;21532;-80
2021/04/23 05:25:22;;;;;;;21.85;15.30;;;;;;;8.23;75.95;97819.33;1726439;83;21620;-80
2021/04/23 05:27:54;;;;;;;21.33;14.33;;;;;;;8.30;76.13;97825.75;1706813;83;21153;-79
2021/04/23 05:30:29;;;;;;;20.85;12.65;;;;;;;8.37;76.42;97825.60;1715259;83;21157;-78
2021/04/23 05:32:58;;;;;;;20.95;14.20;;;;;;;8.43;76.17;97825.48;1688598;85;21134;-78
2021/04/23 05:35:29;;;;;;;19.70;12.50;;;;;;;8.47;75.92;97831.08;1692707;83;21488;-79
2021/04/23 05:37:58;;;;;;;20.30;12.82;;;;;;;8.48;75.96;97826.68;1688853;85;21186;-80
2021/04/23 05:40:43;;;;;;;17.92;11.88;;;;;;;8.54;76.18;97823.47;1688917;85;21177;-80
2021/04/23 05:43:13;;;;;;;22.20;13.98;;;;;;;8.62;75.79;97834.29;1688622;85;21153;-80
2021/04/23 05:45:43;;;;;;;21.93;14.43;;;;;;;8.68;75.89;97834.16;1689493;83;21142;-80
2021/04/23 05:48:17;;;;;;;21.80;13.28;;;;;;;8.71;75.94;97834.95;1688779;85;21520;-80
2021/04/23 05:50:46;;;;;;;20.52;13.18;;;;;;;8.76;76.04;97832.19;1688513;85;21161;-80
2021/04/23 05:53:14;;;;;;;20.05;13.38;;;;;;;8.82;75.61;97830.73;1707616;83;21138;-80
2021/04/23 05:55:42;;;;;;;17.98;12.20;;;;;;;8.88;75.55;97834.13;1694053;83;21137;-80
2021/04/23 05:58:12;;;;;;;19.57;12.28;;;;;;;8.91;75.78;97836.23;1717240;82;21177;-80
2021/04/23 06:00:42;;;;;;;17.98;12.50;;;;;;;8.95;75.66;97835.25;1731582;82;21147;-80
2021/04/23 06:03:12;;;;;;;20.70;13.10;;;;;;;8.99;75.69;97839.99;1693564;84;21142;-80
2021/04/23 06:05:43;;;;;;;21.80;13.18;;;;;;;9.01;75.34;97846.09;1715799;82;21150;-79
2021/04/23 06:08:13;;;;;;;23.18;14.68;;;;;;;9.03;75.44;97848.70;1730135;82;21524;-81
2021/04/23 06:10:44;;;;;;;21.37;13.80;;;;;;;9.05;75.50;97846.44;1714140;84;21308;-81
2021/04/23 06:13:13;;;;;;;21.48;13.75;;;;;;;9.06;75.62;97846.84;1714203;84;21118;-80
2021/04/23 06:15:41;;;;;;;21.82;13.03;;;;;;;9.04;75.14;97851.31;1720384;82;21295;-81
2021/04/23 06:18:11;;;;;;;17.85;12.10;;;;;;;9.07;74.96;97859.18;1734945;82;21177;-80
2021/04/23 06:20:42;;;;;;;19.12;12.13;;;;;;;9.06;74.61;97860.53;1728526;82;21540;-80
2021/04/23 06:23:12;;;;;;;21.35;12.58;;;;;;;9.07;74.72;97863.59;1714180;82;21299;-81
2021/04/23 06:25:39;;;;;;;21.15;12.75;;;;;;;9.08;74.39;97870.16;1712968;82;21181;-80
2021/04/23 06:28:08;;;;;;;20.55;13.08;;;;;;;9.14;74.85;97876.20;1684342;84;21670;-81
2021/04/23 06:30:36;;;;;;;19.27;12.82;;;;;;;9.17;73.85;97874.33;1743157;82;21162;-81
2021/04/23 06:33:13;;;;;;;20.30;12.63;;;;;;;9.19;73.64;97881.80;1743523;82;21150;-81
2021/04/23 06:35:36;;;;;;;21.15;13.70;;;;;;;9.24;73.81;97888.27;1742437;82;21146;-78
2021/04/23 06:38:03;;;;;;;21.90;12.75;;;;;;;9.31;73.25;97888.54;1715730;82;21124;-79
2021/04/23 06:40:35;;;;;;;20.50;12.63;;;;;;;9.40;72.83;97893.16;1733567;82;21634;-79
2021/04/23 06:43:13;;;;;;;21.70;13.25;;;;;;;9.46;73.12;97888.57;1697698;82;21174;-80
2021/04/23 06:45:45;;;;;;;19.32;12.53;;;;;;;9.55;72.55;97882.63;1713499;82;21682;-80
2021/04/23 06:48:14;;;;;;;17.98;11.65;;;;;;;9.55;69.86;97892.73;1732992;82;21143;-80
2021/04/23 06:50:44;;;;;;;16.05;11.30;;;;;;;9.63;71.12;97886.79;1723510;82;21129;-79
2021/04/23 06:53:14;;;;;;;15.90;11.22;;;;;;;9.65;70.96;97890.72;1714060;82;21508;-82
2021/04/23 06:55:43;;;;;;;20.75;14.85;;;;;;;9.64;71.02;97889.84;1717848;82;21173;-81
2021/04/23 06:58:15;;;;;;;31.80;17.80;;;;;;;9.56;70.51;97883.03;1713885;84;21558;-80
2021/04/23 07:00:44;;;;;;;16.73;11.35;;;;;;;9.41;70.35;97886.95;1713220;84;21148;-80
2021/04/23 07:03:12;;;;;;;16.87;10.95;;;;;;;9.27;70.59;97884.23;1712568;84;21164;-80
2021/04/23 07:05:44;;;;;;;17.62;11.20;;;;;;;9.18;69.12;97902.98;1712315;84;21291;-81
2021/04/23 07:08:13;;;;;;;19.25;11.05;;;;;;;9.08;69.70;97889.98;1708501;83;21560;-81
2021/04/23 07:10:42;;;;;;;19.90;12.20;;;;;;;9.10;70.14;97889.48;1651771;85;21155;-77
2021/04/23 07:13:10;;;;;;;21.33;13.40;;;;;;;9.18;70.54;97881.35;1690632;84;21181;-82
2021/04/23 07:15:38;;;;;;;18.73;11.53;;;;;;;9.26;69.90;97890.41;1699007;82;21141;-83
2021/04/23 07:18:06;;;;;;;16.77;11.05;;;;;;;9.33;68.28;97889.80;1698513;83;21192;-82
2021/04/23 07:20:37;;;;;;;14.87;9.83;;;;;;;9.38;67.74;97890.54;1696805;84;21175;-82
2021/04/23 07:23:06;;;;;;;15.80;10.03;;;;;;;9.44;68.03;97888.20;1680818;84;21117;-84
2021/04/23 07:25:37;;;;;;;14.95;8.18;;;;;;;9.51;68.40;97891.11;1699877;83;21138;-84
2021/04/23 07:28:05;;;;;;;10.68;7.85;;;;;;;9.58;67.83;97902.37;1703485;84;21244;-83
2021/04/23 07:30:37;;;;;;;14.13;7.83;;;;;;;9.63;68.29;97892.52;1701365;84;21118;-83
2021/04/23 07:33:24;;;;;;;10.53;6.87;;;;;;;9.72;69.03;97903.33;1689361;83;21122;-83
2021/04/23 07:35:52;;;;;;;8.60;6.90;;;;;;;9.76;68.44;97908.96;1687043;84;21181;-83
2021/04/23 07:38:48;;;;;;;7.72;5.47;;;;;;;9.85;67.22;97918.41;1700319;84;21173;-84
2021/04/23 07:41:30;;;;;;;;;;;;;;;;;;;;;
2021/04/23 07:44:27;;;;;;;;;;;;;;;;;;;;;
2021/04/23 07:46:59;;;;;;;6.83;4.50;;;;;;;9.82;66.48;97914.08;1701003;84;21182;-82
2021/04/23 07:49:31;;;;;;;6.40;4.42;;;;;;;9.79;66.10;97923.89;1701957;84;21165;-85
2021/04/23 07:52:14;;;;;;;5.60;4.08;;;;;;;9.88;66.94;97916.98;1702376;83;21182;-82
2021/04/23 07:54:42;;;;;;;5.10;3.98;;;;;;;10.02;65.83;97908.20;1705661;82;21569;-83
2021/04/23 07:57:15;;;;;;;7.05;4.92;;;;;;;10.24;64.97;97914.66;1696124;82;21188;-84
2021/04/23 07:59:51;;;;;;;6.78;4.17;;;;;;;10.37;62.80;97913.38;1684320;84;21589;-84
2021/04/23 08:02:27;;;;;;;5.60;4.25;;;;;;;10.28;59.68;97916.30;1729338;81;21118;-84
2021/04/23 08:04:57;;;;;;;5.22;3.90;;;;;;;10.41;61.25;97928.28;1720975;83;21157;-83
2021/04/23 08:07:28;;;;;;;6.42;3.65;;;;;;;10.47;59.46;97946.26;1710082;83;21157;-84
2021/04/23 08:12:46;;;;;;;5.20;2.90;;;;;;;10.18;55.93;97947.50;1816766;77;23023;-83
2021/04/23 08:15:16;;;;;;;;;;;;;;;10.10;55.44;97945.52;1829503;78;21117;-86
2021/04/23 08:17:44;;;;;;;3.10;1.92;;;;;;;10.14;53.98;97940.55;1821947;78;20195;-85
2021/04/23 08:20:14;;;;;;;2.00;1.42;;;;;;;10.07;52.53;97949.56;1798522;78;21613;-85
2021/04/23 08:22:43;;;;;;;2.80;1.50;;;;;;;10.08;52.13;97945.55;1815694;78;21106;-82
2021/04/23 08:25:16;;;;;;;2.37;1.40;;;;;;;10.12;52.01;97947.66;1808770;78;21075;-82
2021/04/23 08:27:48;;;;;;;2.87;1.90;;;;;;;10.20;51.84;97945.66;1808244;78;21110;-80
2021/04/23 08:30:21;;;;;;;3.10;1.77;;;;;;;10.28;50.11;97948.09;1800093;78;21102;-81
2021/04/23 08:32:49;;;;;;;3.98;1.82;;;;;;;10.33;48.88;97958.56;1806830;78;21127;-80
2021/04/23 08:35:18;;;;;;;31.42;19.10;;;;;;;10.39;50.84;97957.90;1799268;78;21122;-80
2021/04/23 08:37:47;;;;;;;16.70;8.60;;;;;;;10.53;51.14;97961.52;1808230;78;21109;-80
2021/04/23 08:40:17;;;;;;;3.70;2.17;;;;;;;10.68;52.01;97964.63;1805693;78;21114;-80
2021/04/23 08:42:51;;;;;;;3.83;2.30;;;;;;;10.79;49.85;97963.83;1798802;80;21102;-82
2021/04/23 08:45:21;;;;;;;4.17;2.47;;;;;;;10.79;49.31;97974.42;1805648;78;21720;-81
2021/04/23 08:48:02;;;;;;;6.60;2.20;;;;;;;10.70;49.77;97972.05;1798656;78;21259;-81
2021/04/23 08:50:30;;;;;;;3.77;2.00;;;;;;;10.75;50.88;97975.44;1735083;81;21161;-81
2021/04/23 08:52:58;;;;;;;3.85;2.45;;;;;;;10.76;49.86;97971.02;1733418;82;21228;-82
2021/04/23 08:55:28;;;;;;;4.92;2.65;;;;;;;10.65;47.89;97972.66;1747140;81;21140;-82
2021/04/23 08:58:07;;;;;;;4.78;2.12;;;;;;;10.56;48.46;97976.45;1755154;80;21110;-81
2021/04/23 09:00:33;;;;;;;4.00;1.87;;;;;;;10.45;47.90;97970.59;1740605;81;21106;-80
2021/04/23 09:03:03;;;;;;;4.62;2.55;;;;;;;10.49;48.68;97976.21;1752922;81;21808;-81
2021/04/23 09:05:31;;;;;;;3.72;1.92;;;;;;;10.58;47.50;97972.44;1753180;81;21161;-81
2021/04/23 09:08:09;;;;;;;3.95;1.95;;;;;;;10.58;45.51;97974.62;1745730;81;21174;-82
2021/04/23 09:10:39;;;;;;;3.98;2.20;;;;;;;10.73;48.16;97967.12;1749374;81;21465;-82
2021/04/23 09:13:15;;;;;;;4.00;2.33;;;;;;;10.95;45.44;97969.97;1757274;80;21438;-82
2021/04/23 09:15:46;;;;;;;6.80;3.10;;;;;;;11.04;44.79;97972.81;1764297;80;21480;-82
2021/04/23 09:18:17;;;;;;;3.30;1.67;;;;;;;10.90;44.07;97975.88;1813620;79;21083;-82
2021/04/23 09:21:02;;;;;;;3.77;2.22;;;;;;;10.77;42.24;97992.62;1797634;79;21106;-82
2021/04/23 09:23:32;;;;;;;4.78;2.27;;;;;;;10.82;43.30;97970.38;1759809;80;21572;-81
2021/04/23 09:26:02;;;;;;;4.47;2.15;;;;;;;11.01;41.85;97964.46;1796815;79;21310;-81
2021/04/23 09:28:39;;;;;;;3.00;1.95;;;;;;;11.15;42.01;97967.14;1798009;79;21134;-81
2021/04/23 09:31:29;;;;;;;4.97;1.80;;;;;;;11.29;38.75;97975.52;1796346;79;21126;-80
2021/04/23 09:34:08;;;;;;;3.67;2.40;;;;;;;11.39;35.41;97977.86;1800908;79;21214;-81
2021/04/23 09:36:44;;;;;;;1.98;1.67;;;;;;;11.42;34.50;97973.31;1798525;79;21067;-81
2021/04/23 09:39:22;;;;;;;4.92;1.90;;;;;;;11.26;33.15;97965.02;1801390;79;21209;-81
2021/04/23 09:42:06;;;;;;;3.10;1.60;;;;;;;11.27;34.72;97961.45;1809320;79;21094;-82
2021/04/23 09:44:49;;;;;;;4.40;2.12;;;;;;;11.24;34.28;97968.16;1801954;78;21155;-81
2021/04/23 09:47:23;;;;;;;3.95;1.75;;;;;;;11.14;34.96;97963.64;1787714;80;21273;-81
2021/04/23 09:49:59;;;;;;;2.90;1.50;;;;;;;11.09;35.29;97977.51;1770207;79;21094;-80
2021/04/23 09:52:28;;;;;;;2.60;1.55;;;;;;;11.16;33.65;97979.03;1810952;79;21115;-81
2021/04/23 09:55:06;;;;;;;4.70;1.80;;;;;;;11.28;34.46;97971.58;1793038;79;21155;-82
2021/04/23 09:57:40;;;;;;;5.12;1.55;;;;;;;11.38;34.01;97974.33;1800450;79;21095;-81
2021/04/23 10:00:12;;;;;;;4.53;2.08;;;;;;;11.55;33.26;97973.77;1796611;79;21599;-81
2021/04/23 10:02:39;;;;;;;2.80;1.72;;;;;;;11.66;32.92;97970.75;1797893;79;21107;-81
2021/04/23 10:05:09;;;;;;;4.20;1.90;;;;;;;11.73;34.26;97966.11;1810115;79;21098;-82
2021/04/23 10:07:39;;;;;;;4.37;1.90;;;;;;;11.77;31.69;97989.42;1797830;79;21110;-82
2021/04/23 10:10:10;;;;;;;3.22;1.90;;;;;;;11.64;30.04;97970.41;1809503;78;21252;-81
2021/04/23 10:12:54;;;;;;;4.55;1.75;;;;;;;11.66;29.47;97978.72;1810699;78;21083;-81
2021/04/23 10:15:32;;;;;;;6.47;2.33;;;;;;;11.72;30.62;97958.59;1807108;79;21162;-81
2021/04/23 10:18:07;;;;;;;4.72;1.80;;;;;;;11.91;31.26;97967.72;1804858;79;21110;-83
2021/04/23 10:20:43;;;;;;;3.85;1.92;;;;;;;11.98;29.41;97960.80;1759955;80;21175;-82
2021/04/23 10:23:14;;;;;;;5.53;2.00;;;;;;;11.99;28.08;97961.20;1763152;80;21122;-83
2021/04/23 10:25:45;;;;;;;4.62;1.72;;;;;;;12.10;29.11;97979.91;1735151;82;21118;-83
2021/04/23 10:28:21;;;;;;;4.00;1.92;;;;;;;12.19;28.25;97986.66;1731291;82;21504;-81
2021/04/23 10:30:55;;;;;;;2.85;1.77;;;;;;;12.33;27.29;97962.27;1746837;81;21536;-82
2021/04/23 10:33:26;;;;;;;3.08;1.40;;;;;;;12.49;27.11;97972.70;1765186;80;21549;-81
2021/04/23 10:35:58;;;;;;;3.77;1.85;;;;;;;12.60;28.20;97978.95;1756513;81;21133;-81
2021/04/23 10:38:37;;;;;;;3.75;1.75;;;;;;;12.63;26.78;97977.48;1754968;82;21116;-80
2021/04/23 10:41:14;;;;;;;1.98;1.50;;;;;;;12.98;27.88;97957.10;1731580;82;21184;-81
2021/04/23 10:43:55;;;;;;;4.08;1.87;;;;;;;14.23;26.38;97959.89;1748098;81;21121;-82
2021/04/23 10:46:24;;;;;;;3.75;2.37;;;;;;;15.69;25.81;97956.11;1754059;82;21812;-82
2021/04/23 10:49:08;;;;;;;4.83;2.02;;;;;;;16.72;25.74;97955.63;1753052;81;21604;-81
2021/04/23 10:51:36;;;;;;;4.50;2.42;;;;;;;17.20;24.99;97950.79;1750179;81;21554;-83
2021/04/23 10:54:13;;;;;;;3.90;2.00;;;;;;;17.84;23.23;97949.75;1750242;81;21174;-80
2021/04/23 10:56:51;;;;;;;3.95;1.85;;;;;;;18.31;24.18;97941.12;1746838;81;21181;-80
2021/04/23 10:59:32;;;;;;;5.92;2.50;;;;;;;19.38;23.69;97954.08;1743635;81;21194;-79
2021/04/23 11:02:18;;;;;;;4.25;2.10;;;;;;;20.05;22.99;97942.42;1751232;81;21686;-80
2021/04/23 11:05:01;;;;;;;3.92;2.47;;;;;;;20.44;20.41;97945.09;1755675;81;21292;-79
2021/04/23 11:07:37;;;;;;;5.58;2.25;;;;;;;20.77;21.08;97940.12;1744968;81;21150;-82
2021/04/23 11:10:13;;;;;;;4.45;2.20;;;;;;;20.48;19.01;97933.65;1740523;81;21149;-79
2021/04/23 11:12:55;;;;;;;4.58;2.33;;;;;;;20.89;20.43;97950.48;1684744;81;21686;-82
2021/04/23 11:15:27;;;;;;;3.90;2.10;;;;;;;21.14;20.67;97929.84;1793411;79;21207;-81
2021/04/23 11:18:02;;;;;;;5.47;2.45;;;;;;;21.88;22.66;97929.31;1726570;79;21136;-82
2021/04/23 11:20:32;;;;;;;;;;;;;;;21.50;18.25;97947.39;1772164;79;21127;-82
2021/04/23 11:23:04;;;;;;;3.47;2.05;;;;;;;21.76;18.48;97941.91;1771208;79;20203;-79
2021/04/23 11:25:32;;;;;;;4.65;2.40;;;;;;;21.86;19.39;97947.44;1767580;79;21147;-79
2021/04/23 11:28:06;;;;;;;5.22;2.72;;;;;;;21.31;18.82;97944.77;1808366;79;21379;-80
2021/04/23 11:31:01;;;;;;;4.50;2.47;;;;;;;20.71;17.40;97956.70;1789736;79;21091;-80
2021/04/23 11:33:52;;;;;;;5.35;2.25;;;;;;;21.04;19.34;97932.34;1722218;83;21159;-82
2021/04/23 11:36:41;;;;;;;3.87;2.12;;;;;;;21.81;19.35;97932.09;1779983;79;23440;-83
2021/04/23 11:39:16;;;;;;;4.30;2.08;;;;;;;20.90;18.89;97956.74;1770072;80;21145;-78
2021/04/23 11:42:15;;;;;;;5.55;2.10;;;;;;;19.72;20.72;97947.78;1757209;80;21125;-78
2021/04/23 11:44:54;;;;;;;6.28;2.20;;;;;;;19.28;19.97;97941.75;1765877;80;21087;-78
2021/04/23 11:47:45;;;;;;;8.28;2.72;;;;;;;19.18;21.23;97946.02;1765727;80;21559;-77
2021/04/23 11:50:38;;;;;;;3.37;2.30;;;;;;;18.99;22.26;97958.77;1731731;82;21154;-77
2021/04/23 11:53:13;;;;;;;6.25;2.50;;;;;;;19.81;21.92;97960.23;1710035;83;21120;-79
2021/04/23 11:55:51;;;;;;;4.97;2.85;;;;;;;20.77;20.78;97963.48;1716027;82;21500;-76
2021/04/23 11:58:26;;;;;;;10.30;2.47;;;;;;;20.78;20.15;97970.58;1718296;83;21186;-78
2021/04/23 12:01:08;;;;;;;4.80;2.42;;;;;;;20.11;18.22;97965.84;1707000;83;21522;-77